Time;durP1;ratioP1;P1;durP2;ratioP2;P2;SDS_P1;SDS_P2;PMS_P1;PMS_P2;Temp;Humidity;BMP_temperature;BMP_pressure;BME280_temperature;BME280_humidity;BME280_pressure;Samples;Min_cycle;Max_cycle;Signal;HPM_P1;HPM_P2
2022/03/22 00:00:32;;;;;;;54.47;28.87;;;;;;;;;;5036859;28;20198;-66
2022/03/22 00:02:58;;;;;;;53.38;27.98;;;;;;;;;;5022439;28;20208;-66
2022/03/22 00:05:23;;;;;;;54.60;27.50;;;;;;;;;;5042926;28;20545;-67
2022/03/22 00:07:49;;;;;;;62.87;29.07;;;;;;;;;;5041356;28;20185;-67
2022/03/22 00:10:15;;;;;;;51.67;25.60;;;;;;;;;;5042224;28;20221;-67
2022/03/22 00:12:41;;;;;;;55.83;29.50;;;;;;;;;;5039323;28;20217;-67
2022/03/22 00:15:08;;;;;;;54.30;28.40;;;;;;;;;;5043424;28;20788;-66
2022/03/22 00:17:34;;;;;;;56.57;28.10;;;;;;;;;;5040635;28;20181;-66
2022/03/22 00:19:59;;;;;;;54.83;27.60;;;;;;;;;;5038698;28;20185;-67
2022/03/22 00:22:24;;;;;;;55.20;28.23;;;;;;;;;;5039928;28;20618;-66
2022/03/22 00:24:51;;;;;;;56.20;27.60;;;;;;;;;;5035400;28;20213;-66
2022/03/22 00:27:16;;;;;;;57.93;29.70;;;;;;;;;;5040971;28;20245;-67
2022/03/22 00:29:41;;;;;;;57.23;30.10;;;;;;;;;;5038037;28;20189;-67
2022/03/22 00:32:08;;;;;;;58.83;29.77;;;;;;;;;;5041461;28;20204;-67
2022/03/22 00:34:35;;;;;;;62.63;29.07;;;;;;;;;;5042467;28;20616;-67
2022/03/22 00:37:00;;;;;;;59.40;29.03;;;;;;;;;;5038532;28;20173;-67
2022/03/22 00:39:26;;;;;;;59.07;29.00;;;;;;;;;;5039268;28;20177;-66
2022/03/22 00:41:53;;;;;;;61.57;29.37;;;;;;;;;;5043411;28;20815;-66
2022/03/22 00:44:19;;;;;;;62.83;28.47;;;;;;;;;;5031596;28;20243;-67
2022/03/22 00:46:44;;;;;;;54.60;27.60;;;;;;;;;;5035704;28;20220;-66
2022/03/22 00:49:09;;;;;;;53.77;28.13;;;;;;;;;;5031009;28;20182;-67
2022/03/22 00:51:35;;;;;;;52.77;27.33;;;;;;;;;;5039910;28;20196;-67
2022/03/22 00:54:02;;;;;;;56.27;28.00;;;;;;;;;;5019234;28;20257;-66
2022/03/22 00:56:29;;;;;;;56.97;27.80;;;;;;;;;;5025098;28;20550;-67
2022/03/22 01:00:01;;;;;;;57.73;28.33;;;;;;;;;;5030040;28;20617;-67
2022/03/22 01:01:40;;;;;;;59.00;28.20;;;;;;;;;;5026478;28;20673;-66
2022/03/22 01:04:06;;;;;;;55.70;28.70;;;;;;;;;;5021981;28;20201;-66
2022/03/22 01:06:31;;;;;;;59.70;27.73;;;;;;;;;;5026091;28;20204;-67
2022/03/22 01:08:57;;;;;;;59.03;28.30;;;;;;;;;;5023099;28;20190;-66
2022/03/22 01:11:22;;;;;;;61.53;28.93;;;;;;;;;;5026402;28;20287;-67
2022/03/22 01:13:48;;;;;;;57.03;28.90;;;;;;;;;;5029745;28;20174;-65
2022/03/22 01:16:15;;;;;;;62.13;29.57;;;;;;;;;;5025238;28;20181;-66
2022/03/22 01:18:40;;;;;;;57.60;29.67;;;;;;;;;;5024407;28;20276;-67
2022/03/22 01:21:06;;;;;;;58.80;29.30;;;;;;;;;;5024775;28;20197;-67
2022/03/22 01:23:31;;;;;;;59.83;28.30;;;;;;;;;;5021590;28;20637;-66
2022/03/22 01:25:57;;;;;;;61.03;29.50;;;;;;;;;;5030549;28;20414;-66
2022/03/22 01:28:22;;;;;;;57.23;28.33;;;;;;;;;;5029494;28;20177;-66
2022/03/22 01:30:48;;;;;;;60.97;30.27;;;;;;;;;;5027436;28;20213;-67
2022/03/22 01:33:15;;;;;;;59.47;30.10;;;;;;;;;;5019996;28;20681;-66
2022/03/22 01:35:41;;;;;;;54.13;28.70;;;;;;;;;;5020055;28;20181;-67
2022/03/22 01:38:07;;;;;;;64.00;30.50;;;;;;;;;;5024242;28;20764;-67
2022/03/22 01:40:33;;;;;;;58.67;29.93;;;;;;;;;;5028628;28;20189;-66
2022/03/22 01:42:58;;;;;;;58.70;29.73;;;;;;;;;;5023940;28;20545;-66
2022/03/22 01:45:24;;;;;;;58.70;29.00;;;;;;;;;;5036692;28;20178;-66
2022/03/22 01:47:50;;;;;;;60.20;29.47;;;;;;;;;;5024240;28;20246;-66
2022/03/22 01:50:19;;;;;;;54.63;28.03;;;;;;;;;;5025980;28;20182;-66
2022/03/22 01:52:45;;;;;;;60.63;30.20;;;;;;;;;;5025500;28;20748;-67
2022/03/22 01:55:13;;;;;;;59.83;29.33;;;;;;;;;;5018592;28;20190;-66
2022/03/22 01:57:39;;;;;;;55.13;27.33;;;;;;;;;;5015194;28;20186;-66
2022/03/22 02:00:08;;;;;;;62.70;31.17;;;;;;;;;;5018992;28;20209;-66
2022/03/22 02:08:06;;;;;;;51.93;25.30;;;;;;;;;;5024462;28;20198;-66
2022/03/22 02:10:32;;;;;;;59.10;29.00;;;;;;;;;;5023147;28;20182;-66
2022/03/22 02:12:57;;;;;;;57.90;29.20;;;;;;;;;;5023674;28;20185;-67
2022/03/22 02:15:22;;;;;;;55.03;27.33;;;;;;;;;;5024855;28;20271;-66
2022/03/22 02:17:49;;;;;;;59.43;28.57;;;;;;;;;;5027036;28;20221;-67
2022/03/22 02:20:15;;;;;;;55.43;29.60;;;;;;;;;;5020692;28;20186;-67
2022/03/22 02:22:55;;;;;;;60.07;29.83;;;;;;;;;;5019319;28;20228;-66
2022/03/22 02:25:20;;;;;;;59.73;30.13;;;;;;;;;;5024379;28;20182;-65
2022/03/22 02:27:47;;;;;;;66.00;31.20;;;;;;;;;;5026440;28;20554;-67
2022/03/22 02:30:14;;;;;;;65.47;31.83;;;;;;;;;;5027634;28;20263;-67
2022/03/22 02:32:47;;;;;;;66.67;31.27;;;;;;;;;;5035357;28;20184;-67
2022/03/22 02:35:12;;;;;;;72.23;31.27;;;;;;;;;;5021851;28;20198;-67
2022/03/22 02:37:38;;;;;;;67.13;30.43;;;;;;;;;;5010776;28;20337;-66
2022/03/22 02:40:07;;;;;;;67.97;32.07;;;;;;;;;;5029024;28;20198;-66
2022/03/22 02:42:32;;;;;;;70.13;31.97;;;;;;;;;;5022887;28;20289;-67
2022/03/22 02:44:58;;;;;;;65.63;30.40;;;;;;;;;;5028910;28;20298;-67
2022/03/22 02:47:23;;;;;;;65.20;29.43;;;;;;;;;;5024407;28;20398;-65
2022/03/22 02:49:48;;;;;;;69.17;31.03;;;;;;;;;;5024742;28;20288;-66
2022/03/22 02:52:14;;;;;;;62.20;29.43;;;;;;;;;;5024971;28;20252;-66
2022/03/22 02:54:39;;;;;;;56.47;28.40;;;;;;;;;;5017786;28;20185;-67
2022/03/22 02:57:05;;;;;;;62.73;30.73;;;;;;;;;;5024268;28;20191;-65
2022/03/22 02:59:30;;;;;;;58.33;30.10;;;;;;;;;;5028035;28;20209;-67
2022/03/22 03:01:57;;;;;;;58.63;28.87;;;;;;;;;;5029275;28;20247;-66
2022/03/22 03:04:23;;;;;;;56.83;27.57;;;;;;;;;;5035523;28;20653;-66
2022/03/22 03:06:48;;;;;;;58.23;29.57;;;;;;;;;;5035562;28;20265;-66
2022/03/22 03:09:13;;;;;;;61.70;29.33;;;;;;;;;;5031570;28;20226;-67
2022/03/22 03:11:39;;;;;;;65.60;29.37;;;;;;;;;;5027317;28;20230;-67
2022/03/22 03:16:48;;;;;;;63.80;31.97;;;;;;;;;;5029674;28;20611;-67
2022/03/22 03:19:13;;;;;;;64.23;31.80;;;;;;;;;;5027676;28;20194;-65
2022/03/22 03:21:39;;;;;;;58.30;30.60;;;;;;;;;;5031833;28;20662;-66
2022/03/22 03:24:04;;;;;;;63.10;29.87;;;;;;;;;;5038107;28;20217;-66
2022/03/22 03:26:29;;;;;;;61.50;29.57;;;;;;;;;;5042033;28;20185;-66
2022/03/22 03:28:55;;;;;;;56.20;30.13;;;;;;;;;;5038811;28;20276;-66
2022/03/22 03:31:20;;;;;;;58.47;30.43;;;;;;;;;;5040455;28;20564;-67
2022/03/22 03:33:45;;;;;;;66.13;29.70;;;;;;;;;;5033568;28;20715;-66
2022/03/22 03:36:11;;;;;;;67.93;31.70;;;;;;;;;;5038100;28;20184;-68
2022/03/22 03:38:41;;;;;;;65.27;31.20;;;;;;;;;;5040248;28;20186;-67
2022/03/22 03:43:52;;;;;;;58.30;28.37;;;;;;;;;;5036276;28;20313;-66
2022/03/22 03:49:01;;;;;;;61.30;29.03;;;;;;;;;;5036832;28;20291;-66
2022/03/22 03:51:26;;;;;;;58.00;28.13;;;;;;;;;;5024976;28;20229;-66
2022/03/22 03:53:52;;;;;;;58.80;30.00;;;;;;;;;;5023810;28;20190;-67
2022/03/22 03:56:17;;;;;;;55.60;27.33;;;;;;;;;;5023717;28;20220;-66
2022/03/22 03:58:42;;;;;;;61.60;28.37;;;;;;;;;;5031582;28;20193;-66
2022/03/22 04:01:08;;;;;;;63.57;30.60;;;;;;;;;;5043434;28;20181;-67
2022/03/22 04:03:34;;;;;;;66.47;30.07;;;;;;;;;;5029794;28;20221;-67
2022/03/22 04:05:59;;;;;;;57.50;28.77;;;;;;;;;;5035663;28;20194;-67
2022/03/22 04:08:24;;;;;;;70.23;33.43;;;;;;;;;;5019653;28;20190;-67
2022/03/22 04:10:50;;;;;;;66.27;31.33;;;;;;;;;;5044160;28;20256;-66
2022/03/22 04:13:15;;;;;;;66.60;30.00;;;;;;;;;;5041896;28;20205;-66
2022/03/22 04:15:41;;;;;;;64.83;30.47;;;;;;;;;;5039379;28;20603;-67
2022/03/22 04:18:07;;;;;;;59.27;31.00;;;;;;;;;;5039162;28;20204;-66
2022/03/22 04:20:32;;;;;;;59.57;29.20;;;;;;;;;;5037704;28;20185;-66
2022/03/22 04:22:57;;;;;;;58.13;29.27;;;;;;;;;;5040636;28;20554;-67
2022/03/22 04:25:23;;;;;;;63.67;29.70;;;;;;;;;;5026034;28;20190;-66
2022/03/22 04:33:16;;;;;;;59.93;29.13;;;;;;;;;;5031389;28;20240;-67
2022/03/22 04:35:42;;;;;;;61.70;29.03;;;;;;;;;;5025767;28;20191;-67
2022/03/22 04:38:07;;;;;;;54.80;26.67;;;;;;;;;;5027823;28;20214;-66
2022/03/22 04:40:32;;;;;;;55.63;27.67;;;;;;;;;;5025555;28;20222;-66
2022/03/22 04:42:58;;;;;;;57.23;26.60;;;;;;;;;;5024678;28;20572;-66
2022/03/22 04:45:24;;;;;;;55.13;27.97;;;;;;;;;;5023656;28;20247;-66
2022/03/22 04:47:50;;;;;;;55.47;26.97;;;;;;;;;;5026229;28;20399;-67
2022/03/22 04:50:16;;;;;;;57.13;26.50;;;;;;;;;;5023870;28;20311;-67
2022/03/22 04:58:09;;;;;;;57.27;28.93;;;;;;;;;;5019479;28;20197;-66
2022/03/22 05:00:35;;;;;;;56.43;26.67;;;;;;;;;;5015712;28;20194;-67
2022/03/22 05:03:02;;;;;;;61.63;29.90;;;;;;;;;;5018398;28;20670;-66
2022/03/22 05:08:11;;;;;;;68.83;29.40;;;;;;;;;;5023171;28;20226;-67
2022/03/22 05:10:37;;;;;;;60.57;27.13;;;;;;;;;;5018582;28;20222;-67
2022/03/22 05:13:04;;;;;;;55.70;27.90;;;;;;;;;;5021628;28;20558;-67
2022/03/22 05:15:31;;;;;;;56.50;27.73;;;;;;;;;;5021849;28;20622;-66
2022/03/22 05:17:56;;;;;;;58.87;28.23;;;;;;;;;;5037913;28;20598;-67
2022/03/22 05:20:22;;;;;;;58.27;28.47;;;;;;;;;;5029390;28;20367;-67
2022/03/22 05:22:48;;;;;;;59.73;27.97;;;;;;;;;;5037065;28;20205;-66
2022/03/22 05:25:14;;;;;;;56.13;27.27;;;;;;;;;;5028566;28;20577;-68
2022/03/22 05:27:39;;;;;;;59.50;29.00;;;;;;;;;;5029906;28;20186;-66
2022/03/22 05:30:05;;;;;;;63.03;28.37;;;;;;;;;;5027576;28;20630;-66
2022/03/22 05:32:31;;;;;;;59.17;28.90;;;;;;;;;;5015679;28;20231;-65
2022/03/22 05:34:56;;;;;;;64.10;28.03;;;;;;;;;;5035871;28;20197;-66
2022/03/22 05:37:22;;;;;;;57.20;28.40;;;;;;;;;;5026909;28;20256;-66
2022/03/22 05:39:48;;;;;;;57.20;28.03;;;;;;;;;;5027036;28;20193;-67
2022/03/22 05:42:16;;;;;;;54.23;27.47;;;;;;;;;;5028863;28;20228;-66
2022/03/22 05:44:43;;;;;;;54.63;26.03;;;;;;;;;;5026612;28;20293;-67
2022/03/22 05:47:09;;;;;;;58.57;29.43;;;;;;;;;;5038142;28;20291;-66
2022/03/22 05:49:36;;;;;;;61.43;28.30;;;;;;;;;;5037145;28;20205;-66
2022/03/22 05:52:02;;;;;;;65.07;29.17;;;;;;;;;;5039275;28;20469;-66
2022/03/22 05:54:27;;;;;;;60.37;29.47;;;;;;;;;;5032243;28;20183;-66
2022/03/22 05:56:53;;;;;;;56.83;27.77;;;;;;;;;;5041194;28;20251;-66
2022/03/22 05:59:18;;;;;;;63.00;30.03;;;;;;;;;;5028557;28;20182;-66
2022/03/22 06:01:44;;;;;;;57.13;27.57;;;;;;;;;;5010766;28;20269;-66
2022/03/22 06:04:11;;;;;;;57.97;27.33;;;;;;;;;;5024128;28;20217;-67
2022/03/22 06:06:37;;;;;;;52.70;26.37;;;;;;;;;;5021454;28;20178;-67
2022/03/22 06:09:02;;;;;;;56.63;28.40;;;;;;;;;;5033434;28;20258;-66
2022/03/22 06:11:29;;;;;;;61.60;28.93;;;;;;;;;;5035421;28;20264;-66
2022/03/22 06:13:54;;;;;;;58.97;28.93;;;;;;;;;;5037195;28;20208;-67
2022/03/22 06:16:20;;;;;;;57.83;28.10;;;;;;;;;;5035968;28;20189;-67
2022/03/22 06:18:45;;;;;;;57.90;28.43;;;;;;;;;;5036478;28;20246;-65
2022/03/22 06:21:11;;;;;;;55.80;28.20;;;;;;;;;;5039756;28;20535;-66
2022/03/22 06:23:36;;;;;;;60.63;27.80;;;;;;;;;;5035304;28;20208;-66
2022/03/22 06:26:02;;;;;;;51.93;27.30;;;;;;;;;;5022868;28;20194;-66
2022/03/22 06:28:27;;;;;;;54.53;27.00;;;;;;;;;;5041654;28;20254;-67
2022/03/22 06:30:53;;;;;;;53.00;26.83;;;;;;;;;;5035809;28;20250;-67
2022/03/22 06:33:22;;;;;;;55.03;27.50;;;;;;;;;;5023209;28;20186;-67
2022/03/22 06:35:47;;;;;;;51.03;26.37;;;;;;;;;;5016775;28;20186;-67
2022/03/22 06:38:13;;;;;;;57.47;29.20;;;;;;;;;;5045243;28;20194;-67
2022/03/22 06:40:39;;;;;;;51.00;26.80;;;;;;;;;;5034851;28;20261;-67
2022/03/22 06:43:08;;;;;;;51.57;26.90;;;;;;;;;;5033446;28;20216;-66
2022/03/22 06:45:33;;;;;;;62.13;29.57;;;;;;;;;;5037549;28;20198;-67
2022/03/22 06:48:00;;;;;;;57.70;27.47;;;;;;;;;;5039275;28;20193;-67
2022/03/22 06:50:25;;;;;;;53.87;28.73;;;;;;;;;;5028238;28;20561;-67
2022/03/22 06:52:52;;;;;;;56.57;27.67;;;;;;;;;;5031112;28;20173;-67
2022/03/22 06:55:22;;;;;;;52.40;27.33;;;;;;;;;;5025240;28;20626;-66
2022/03/22 06:57:48;;;;;;;54.03;27.83;;;;;;;;;;5027611;28;20190;-66
2022/03/22 07:00:15;;;;;;;56.57;27.77;;;;;;;;;;5036777;28;20224;-66
2022/03/22 07:02:41;;;;;;;54.43;28.03;;;;;;;;;;5040869;28;20201;-67
2022/03/22 07:05:10;;;;;;;50.30;27.37;;;;;;;;;;5030708;28;20269;-66
2022/03/22 07:07:36;;;;;;;52.73;28.30;;;;;;;;;;5035825;28;20178;-66
2022/03/22 07:10:03;;;;;;;59.53;29.63;;;;;;;;;;5023902;28;20199;-67
2022/03/22 07:12:28;;;;;;;56.17;28.80;;;;;;;;;;5029715;28;20222;-67
2022/03/22 07:14:54;;;;;;;53.63;28.53;;;;;;;;;;5025934;28;20201;-67
2022/03/22 07:17:19;;;;;;;54.77;28.83;;;;;;;;;;5027824;28;20692;-66
2022/03/22 07:19:45;;;;;;;54.13;28.03;;;;;;;;;;5032002;28;20577;-66
2022/03/22 07:22:10;;;;;;;49.10;27.10;;;;;;;;;;5025273;28;20180;-66
2022/03/22 07:24:36;;;;;;;51.23;26.53;;;;;;;;;;5029018;28;20186;-66
2022/03/22 07:27:02;;;;;;;52.87;26.10;;;;;;;;;;5041038;28;20190;-65
2022/03/22 07:29:28;;;;;;;52.93;27.73;;;;;;;;;;5020241;28;20479;-66
2022/03/22 07:31:55;;;;;;;53.83;27.27;;;;;;;;;;5026318;28;20212;-66
2022/03/22 07:34:21;;;;;;;46.20;26.23;;;;;;;;;;5046279;28;20177;-66
2022/03/22 07:36:47;;;;;;;47.57;25.60;;;;;;;;;;5033035;28;20197;-66
2022/03/22 07:39:13;;;;;;;50.37;26.63;;;;;;;;;;5025956;28;20201;-66
2022/03/22 07:41:38;;;;;;;52.37;26.20;;;;;;;;;;5023962;28;20634;-66
2022/03/22 07:44:07;;;;;;;51.30;26.57;;;;;;;;;;5028330;28;20209;-66
2022/03/22 07:46:33;;;;;;;48.57;25.47;;;;;;;;;;5020203;28;20336;-66
2022/03/22 07:52:58;;;;;;;43.17;25.27;;;;;;;;;;5028887;28;20265;-66
2022/03/22 07:54:29;;;;;;;47.17;25.52;;;;;;;;;;5026515;28;20686;-66
2022/03/22 07:56:55;;;;;;;48.07;25.97;;;;;;;;;;5024389;28;20268;-66
2022/03/22 07:59:20;;;;;;;46.27;24.50;;;;;;;;;;5038728;28;20181;-66
2022/03/22 08:01:46;;;;;;;44.47;24.23;;;;;;;;;;5039696;28;20494;-66
2022/03/22 08:04:11;;;;;;;43.53;23.77;;;;;;;;;;5026356;28;20198;-66
2022/03/22 08:06:36;;;;;;;44.67;24.10;;;;;;;;;;5036266;28;20619;-66
2022/03/22 08:09:02;;;;;;;47.38;24.30;;;;;;;;;;5028504;28;20259;-66
2022/03/22 08:11:27;;;;;;;44.40;24.30;;;;;;;;;;5026436;28;20321;-66
2022/03/22 08:13:53;;;;;;;49.10;23.08;;;;;;;;;;5029059;28;20617;-67
2022/03/22 08:16:18;;;;;;;43.33;23.95;;;;;;;;;;5017725;28;20197;-67
2022/03/22 08:18:43;;;;;;;40.80;23.15;;;;;;;;;;5030071;28;20630;-66
2022/03/22 08:21:09;;;;;;;45.03;23.20;;;;;;;;;;5017652;28;20193;-67
2022/03/22 08:23:34;;;;;;;42.78;23.40;;;;;;;;;;5035933;28;20373;-68
2022/03/22 08:25:59;;;;;;;41.75;23.17;;;;;;;;;;5019025;28;20183;-67
2022/03/22 08:28:25;;;;;;;42.17;22.25;;;;;;;;;;5027637;28;20242;-67
2022/03/22 08:30:50;;;;;;;39.20;21.27;;;;;;;;;;5027472;28;20252;-66
2022/03/22 08:33:17;;;;;;;37.40;20.63;;;;;;;;;;5029545;28;20631;-65
2022/03/22 08:35:45;;;;;;;34.42;20.27;;;;;;;;;;5022968;28;20205;-66
2022/03/22 08:38:12;;;;;;;32.30;19.05;;;;;;;;;;5036374;28;20302;-66
2022/03/22 08:40:39;;;;;;;35.78;18.63;;;;;;;;;;5032952;28;20183;-65
2022/03/22 08:43:08;;;;;;;28.45;15.13;;;;;;;;;;5027683;28;20206;-67
2022/03/22 08:45:34;;;;;;;28.70;14.57;;;;;;;;;;5026631;28;20712;-66
2022/03/22 08:48:02;;;;;;;25.05;14.23;;;;;;;;;;5030703;28;20261;-66
2022/03/22 08:50:27;;;;;;;24.75;13.32;;;;;;;;;;5026888;28;20200;-66
2022/03/22 08:52:56;;;;;;;25.63;13.93;;;;;;;;;;5030936;28;20177;-66
2022/03/22 08:55:23;;;;;;;24.98;14.15;;;;;;;;;;5020562;28;20209;-66
2022/03/22 08:57:49;;;;;;;25.80;13.95;;;;;;;;;;5023511;28;20277;-66
2022/03/22 09:00:17;;;;;;;22.88;13.05;;;;;;;;;;5039594;28;20212;-67
2022/03/22 09:02:45;;;;;;;23.30;12.75;;;;;;;;;;5029470;28;20198;-67
2022/03/22 09:07:58;;;;;;;20.30;12.65;;;;;;;;;;5030980;28;20798;-67
2022/03/22 09:10:24;;;;;;;24.52;13.05;;;;;;;;;;5021573;28;20291;-67
2022/03/22 09:12:50;;;;;;;25.58;13.57;;;;;;;;;;5038533;28;20224;-67
2022/03/22 09:15:16;;;;;;;25.90;13.68;;;;;;;;;;5036309;28;20285;-67
2022/03/22 09:17:42;;;;;;;25.15;13.50;;;;;;;;;;5031322;28;20178;-67
2022/03/22 09:20:12;;;;;;;21.88;14.45;;;;;;;;;;5041849;28;20193;-67
2022/03/22 09:22:37;;;;;;;22.15;12.15;;;;;;;;;;5033450;28;20683;-67
2022/03/22 09:25:03;;;;;;;22.80;12.93;;;;;;;;;;5036631;28;20359;-67
2022/03/22 09:27:28;;;;;;;22.83;13.77;;;;;;;;;;5031852;28;20202;-67
2022/03/22 09:29:54;;;;;;;24.65;13.88;;;;;;;;;;5034701;28;20194;-67
2022/03/22 09:32:20;;;;;;;26.10;13.32;;;;;;;;;;5042185;28;20202;-67
2022/03/22 09:34:45;;;;;;;24.83;13.55;;;;;;;;;;5044725;28;20169;-67
2022/03/22 09:37:16;;;;;;;22.58;13.07;;;;;;;;;;5042615;28;20217;-67
2022/03/22 09:39:42;;;;;;;25.33;13.68;;;;;;;;;;5026924;28;20185;-67
2022/03/22 09:42:08;;;;;;;26.15;13.80;;;;;;;;;;5036473;28;20190;-67
2022/03/22 09:44:34;;;;;;;26.95;13.65;;;;;;;;;;5034045;28;20178;-67
2022/03/22 09:47:03;;;;;;;23.75;13.80;;;;;;;;;;5025498;28;20276;-67
2022/03/22 09:49:28;;;;;;;26.02;13.57;;;;;;;;;;5041245;28;20185;-66
2022/03/22 09:51:54;;;;;;;25.42;13.20;;;;;;;;;;5032495;28;20647;-67
2022/03/22 09:54:25;;;;;;;24.52;14.02;;;;;;;;;;5037081;28;20185;-67
2022/03/22 09:56:51;;;;;;;25.33;13.93;;;;;;;;;;5024221;28;20174;-66
2022/03/22 09:59:20;;;;;;;27.70;14.05;;;;;;;;;;5036319;28;20215;-66
2022/03/22 10:01:46;;;;;;;23.73;13.60;;;;;;;;;;5024020;28;20494;-68
2022/03/22 10:04:14;;;;;;;23.15;13.57;;;;;;;;;;5026656;28;20212;-66
2022/03/22 10:07:02;;;;;;;23.55;14.15;;;;;;;;;;5030611;28;20266;-67
2022/03/22 10:09:32;;;;;;;25.33;13.25;;;;;;;;;;5020411;28;20185;-66
2022/03/22 10:11:58;;;;;;;23.60;14.23;;;;;;;;;;5029536;28;20755;-67
2022/03/22 10:14:38;;;;;;;20.42;13.02;;;;;;;;;;5033477;28;20217;-66
2022/03/22 10:17:18;;;;;;;26.52;14.57;;;;;;;;;;5021317;28;20654;-67
2022/03/22 10:19:51;;;;;;;24.42;14.45;;;;;;;;;;5025130;28;20200;-66
2022/03/22 10:22:23;;;;;;;21.40;14.50;;;;;;;;;;5013149;28;20198;-67
2022/03/22 10:24:51;;;;;;;25.55;14.43;;;;;;;;;;5021903;28;20182;-66
2022/03/22 10:27:21;;;;;;;23.52;14.20;;;;;;;;;;5024030;28;20197;-67
2022/03/22 10:29:47;;;;;;;24.67;14.85;;;;;;;;;;5026935;28;20190;-66
2022/03/22 10:32:12;;;;;;;25.38;14.13;;;;;;;;;;5022094;28;20671;-67
2022/03/22 10:34:38;;;;;;;26.52;15.18;;;;;;;;;;5038772;28;20268;-67
2022/03/22 10:37:04;;;;;;;23.88;14.77;;;;;;;;;;5030406;28;20493;-66
2022/03/22 10:39:29;;;;;;;24.73;14.98;;;;;;;;;;5024736;28;20489;-66
2022/03/22 10:42:04;;;;;;;24.35;14.55;;;;;;;;;;5015444;28;20266;-66
2022/03/22 10:44:34;;;;;;;27.67;15.13;;;;;;;;;;5032748;28;20196;-66
2022/03/22 10:47:02;;;;;;;26.23;15.70;;;;;;;;;;5012577;28;20646;-67
2022/03/22 10:49:28;;;;;;;25.20;15.40;;;;;;;;;;5016952;28;20187;-67
2022/03/22 10:51:56;;;;;;;28.08;16.17;;;;;;;;;;5027683;28;20240;-66
2022/03/22 10:54:21;;;;;;;27.60;15.82;;;;;;;;;;5039778;28;20177;-66
2022/03/22 10:56:56;;;;;;;27.38;15.38;;;;;;;;;;5030822;28;20179;-67
2022/03/22 10:59:25;;;;;;;28.25;14.95;;;;;;;;;;5030795;28;20186;-67
2022/03/22 11:01:52;;;;;;;26.05;15.02;;;;;;;;;;5029045;28;20654;-66
2022/03/22 11:04:21;;;;;;;31.88;15.45;;;;;;;;;;5028591;28;20674;-66
2022/03/22 11:06:47;;;;;;;27.58;15.82;;;;;;;;;;5025274;28;20549;-67
2022/03/22 11:09:17;;;;;;;27.98;15.73;;;;;;;;;;5031215;28;20182;-67
2022/03/22 11:11:43;;;;;;;31.20;16.42;;;;;;;;;;5026801;28;20262;-66
2022/03/22 11:14:11;;;;;;;26.75;14.95;;;;;;;;;;5029295;28;20208;-67
2022/03/22 11:16:38;;;;;;;29.05;16.60;;;;;;;;;;5029867;28;20182;-67
2022/03/22 11:19:04;;;;;;;29.23;16.75;;;;;;;;;;5030759;28;20186;-67
2022/03/22 11:21:32;;;;;;;26.27;15.63;;;;;;;;;;5029573;28;20193;-67
2022/03/22 11:24:11;;;;;;;27.10;15.50;;;;;;;;;;5030480;28;20220;-67
2022/03/22 11:26:44;;;;;;;26.70;15.55;;;;;;;;;;5028828;28;20178;-67
2022/03/22 11:29:15;;;;;;;32.53;17.13;;;;;;;;;;5029740;28;20182;-67
2022/03/22 11:31:42;;;;;;;28.45;15.48;;;;;;;;;;5026153;28;20525;-67
2022/03/22 11:34:09;;;;;;;30.05;17.60;;;;;;;;;;5023008;28;20619;-66
2022/03/22 11:36:49;;;;;;;27.90;16.17;;;;;;;;;;5029942;28;20531;-67
2022/03/22 11:42:15;;;;;;;34.03;16.33;;;;;;;;;;5024876;28;20190;-66
2022/03/22 11:42:17;;;;;;;33.15;17.17;;;;;;;;;;5025104;28;20186;-66
2022/03/22 11:44:56;;;;;;;25.25;15.57;;;;;;;;;;5034330;28;20189;-67
2022/03/22 11:47:22;;;;;;;29.40;15.82;;;;;;;;;;5029553;28;20186;-67
2022/03/22 11:49:53;;;;;;;29.27;16.02;;;;;;;;;;5035364;28;20870;-67
2022/03/22 11:52:21;;;;;;;26.23;16.45;;;;;;;;;;5043532;28;20293;-67
2022/03/22 11:54:53;;;;;;;27.95;16.42;;;;;;;;;;5033994;28;20248;-67
2022/03/22 11:57:19;;;;;;;29.70;16.20;;;;;;;;;;5028027;28;20224;-67
2022/03/22 11:59:47;;;;;;;27.92;15.35;;;;;;;;;;5030274;28;20269;-66
2022/03/22 12:02:17;;;;;;;29.75;16.25;;;;;;;;;;5043403;28;20251;-67
2022/03/22 12:04:57;;;;;;;27.02;15.35;;;;;;;;;;5037932;28;20182;-67
2022/03/22 12:07:37;;;;;;;29.13;16.77;;;;;;;;;;5033521;28;20289;-67
2022/03/22 12:10:07;;;;;;;32.58;17.42;;;;;;;;;;5044358;28;20181;-67
2022/03/22 12:12:33;;;;;;;30.45;16.55;;;;;;;;;;5032900;28;20229;-66
2022/03/22 12:15:00;;;;;;;33.20;17.48;;;;;;;;;;5036907;28;20174;-67
2022/03/22 12:17:27;;;;;;;27.55;15.90;;;;;;;;;;5028228;28;20193;-66
2022/03/22 12:19:57;;;;;;;29.55;16.08;;;;;;;;;;5035367;28;20177;-67
2022/03/22 12:22:24;;;;;;;31.88;16.15;;;;;;;;;;5033902;28;20221;-66
2022/03/22 12:24:50;;;;;;;30.13;16.17;;;;;;;;;;5037351;28;20182;-66
2022/03/22 12:27:16;;;;;;;31.90;16.70;;;;;;;;;;5025296;28;20237;-67
2022/03/22 12:29:44;;;;;;;28.85;15.82;;;;;;;;;;5028888;28;20182;-67
2022/03/22 12:32:17;;;;;;;31.13;15.27;;;;;;;;;;5023269;28;20206;-67
2022/03/22 12:34:46;;;;;;;34.03;17.35;;;;;;;;;;5033927;28;20209;-67
2022/03/22 12:37:13;;;;;;;26.95;15.85;;;;;;;;;;5039694;28;20643;-67
2022/03/22 12:39:41;;;;;;;24.77;14.10;;;;;;;;;;5037723;28;20268;-67
2022/03/22 12:42:08;;;;;;;27.10;15.38;;;;;;;;;;5035424;28;20241;-67
2022/03/22 12:44:35;;;;;;;28.83;15.55;;;;;;;;;;5028078;28;20192;-67
2022/03/22 12:47:02;;;;;;;28.10;15.35;;;;;;;;;;5033508;28;20635;-66
2022/03/22 12:49:27;;;;;;;29.52;16.10;;;;;;;;;;5035499;28;20541;-67
2022/03/22 12:51:54;;;;;;;28.80;15.20;;;;;;;;;;5041076;28;20185;-67
2022/03/22 12:54:19;;;;;;;26.88;15.00;;;;;;;;;;5038814;28;20590;-66
2022/03/22 12:56:49;;;;;;;28.15;14.57;;;;;;;;;;5027770;28;20269;-67
2022/03/22 12:59:22;;;;;;;24.50;14.20;;;;;;;;;;5031379;28;20260;-67
2022/03/22 13:01:58;;;;;;;26.70;14.48;;;;;;;;;;5035181;28;20174;-67
2022/03/22 13:04:32;;;;;;;26.38;14.52;;;;;;;;;;5033425;28;20237;-68
2022/03/22 13:06:59;;;;;;;23.40;13.45;;;;;;;;;;5040656;28;20215;-67
2022/03/22 13:12:14;;;;;;;29.35;14.68;;;;;;;;;;5025866;28;20803;-66
2022/03/22 13:17:43;;;;;;;27.02;14.18;;;;;;;;;;5029632;28;20260;-67
2022/03/22 13:20:27;;;;;;;24.73;12.55;;;;;;;;;;5031480;28;20272;-68
2022/03/22 13:23:00;;;;;;;24.75;13.38;;;;;;;;;;5026197;28;20198;-67
2022/03/22 13:25:35;;;;;;;22.83;13.45;;;;;;;;;;5032954;28;20182;-67
2022/03/22 13:28:02;;;;;;;23.60;12.95;;;;;;;;;;5022644;28;20246;-67
2022/03/22 13:30:29;;;;;;;22.63;12.85;;;;;;;;;;5036724;28;20206;-66
2022/03/22 13:33:17;;;;;;;20.33;12.60;;;;;;;;;;5035476;28;20178;-66
2022/03/22 13:36:00;;;;;;;22.42;13.35;;;;;;;;;;5033533;28;20250;-66
2022/03/22 13:38:27;;;;;;;20.02;12.27;;;;;;;;;;5030694;28;20663;-67
2022/03/22 13:40:57;;;;;;;26.67;13.10;;;;;;;;;;5039798;28;20196;-66
2022/03/22 13:43:22;;;;;;;23.08;12.52;;;;;;;;;;5030537;28;20219;-67
2022/03/22 13:45:51;;;;;;;23.67;12.68;;;;;;;;;;5032622;28;20264;-67
2022/03/22 13:48:17;;;;;;;26.08;12.30;;;;;;;;;;5014512;28;20527;-67
2022/03/22 13:50:44;;;;;;;23.55;11.55;;;;;;;;;;5044005;28;20177;-67
2022/03/22 13:53:16;;;;;;;20.48;11.25;;;;;;;;;;5024581;28;20525;-68
2022/03/22 13:55:47;;;;;;;20.80;11.23;;;;;;;;;;5036556;28;20272;-67
2022/03/22 13:58:16;;;;;;;23.77;12.10;;;;;;;;;;5028962;28;20190;-67
2022/03/22 14:00:44;;;;;;;20.48;11.30;;;;;;;;;;5029139;28;20237;-67
2022/03/22 14:03:10;;;;;;;18.45;11.50;;;;;;;;;;5017527;28;20654;-67
2022/03/22 14:05:37;;;;;;;22.33;12.35;;;;;;;;;;5015862;28;20186;-67
2022/03/22 14:08:03;;;;;;;21.58;11.88;;;;;;;;;;5016677;28;20179;-68
2022/03/22 14:10:29;;;;;;;21.25;12.60;;;;;;;;;;5029315;28;20672;-67
2022/03/22 14:12:55;;;;;;;21.08;11.85;;;;;;;;;;5025404;28;20182;-67
2022/03/22 14:15:21;;;;;;;24.88;12.40;;;;;;;;;;5029124;28;20191;-67
2022/03/22 14:17:47;;;;;;;24.02;12.82;;;;;;;;;;5039199;28;20198;-67
2022/03/22 14:20:17;;;;;;;22.58;12.35;;;;;;;;;;5043500;28;20182;-67
2022/03/22 14:22:43;;;;;;;23.80;12.55;;;;;;;;;;5037072;28;20623;-66
2022/03/22 14:25:09;;;;;;;23.30;13.32;;;;;;;;;;5047496;28;20209;-67
2022/03/22 14:27:36;;;;;;;23.40;12.27;;;;;;;;;;5043449;28;20214;-69
2022/03/22 14:30:06;;;;;;;20.95;11.95;;;;;;;;;;5048086;28;20227;-67
2022/03/22 14:32:32;;;;;;;24.27;12.30;;;;;;;;;;5041092;28;20181;-67
2022/03/22 14:37:41;;;;;;;22.02;11.60;;;;;;;;;;5046595;28;20208;-67
2022/03/22 14:40:08;;;;;;;22.13;11.77;;;;;;;;;;5046867;28;20200;-66
2022/03/22 14:42:33;;;;;;;22.80;12.07;;;;;;;;;;5044060;28;20205;-67
2022/03/22 14:45:01;;;;;;;23.25;12.57;;;;;;;;;;5046755;28;20181;-66
2022/03/22 14:47:28;;;;;;;24.02;12.75;;;;;;;;;;5039773;28;20186;-67
2022/03/22 14:49:53;;;;;;;22.88;12.55;;;;;;;;;;5040908;28;20524;-67
2022/03/22 14:55:03;;;;;;;23.88;12.88;;;;;;;;;;5042381;28;20201;-67
2022/03/22 15:00:12;;;;;;;22.75;12.25;;;;;;;;;;5042355;28;20225;-66
2022/03/22 15:02:40;;;;;;;19.75;11.60;;;;;;;;;;5043084;28;20204;-67